Terminal Aerodrome Forecast
Issued by NWS

Home | Current Version | Previous Version | Text Only | Print | Product List | Glossary Off
Versions: 1 2 3 4 5 6 7 8 9 10 11 12 13

096
FTUS43 KBIS 292333
TAFDIK
TAF
KDIK 292333Z 3000/3024 10012KT P6SM BKN120
     FM300900 07006KT P6SM BKN150=

USA.gov is the U.S. government's official web portal to all federal, state and local government web resources and services.